createdAt,value
2023-02-26T00:02:38.629Z,-1.37
2023-02-26T00:05:40.310Z,-1.39
2023-02-26T00:08:42.200Z,-1.36
2023-02-26T00:11:44.371Z,-1.27
2023-02-26T00:14:51.250Z,-1.53
2023-02-26T00:17:59.437Z,-1.78
2023-02-26T00:21:01.862Z,-1.87
2023-02-26T00:24:04.038Z,-1.92
2023-02-26T00:27:05.750Z,-1.84
2023-02-26T00:30:10.561Z,-1.77
2023-02-26T00:33:13.017Z,-1.75
2023-02-26T00:36:22.476Z,-1.83
2023-02-26T00:39:36.946Z,-1.90
2023-02-26T00:42:39.346Z,-1.78
2023-02-26T00:45:47.879Z,-1.88
2023-02-26T00:48:57.968Z,-2.01
2023-02-26T00:52:05.075Z,-1.99
2023-02-26T00:55:08.193Z,-1.95
2023-02-26T00:58:10.147Z,-1.74
2023-02-26T01:01:13.740Z,-1.64
2023-02-26T01:04:17.334Z,-1.74
2023-02-26T01:07:23.912Z,-1.93
2023-02-26T01:10:26.932Z,-1.85
2023-02-26T01:13:29.363Z,-1.77
2023-02-26T01:16:38.450Z,-1.67
2023-02-26T01:19:44.178Z,-1.72
2023-02-26T01:22:52.281Z,-1.67
2023-02-26T01:25:57.797Z,-1.57
2023-02-26T01:28:59.812Z,-1.24
2023-02-26T01:32:08.810Z,-1.11
2023-02-26T01:35:31.400Z,-1.07
2023-02-26T01:38:41.727Z,-0.98
2023-02-26T01:41:47.332Z,-1.08
2023-02-26T01:44:55.050Z,-1.04
2023-02-26T01:48:04.490Z,-1.00
2023-02-26T01:51:06.235Z,-1.29
2023-02-26T01:54:08.389Z,-1.37
2023-02-26T01:57:15.068Z,-1.38
2023-02-26T02:00:18.196Z,-1.26
2023-02-26T02:03:24.575Z,-1.11
2023-02-26T02:06:29.804Z,-1.00
2023-02-26T02:09:31.812Z,-0.90
2023-02-26T02:12:40.292Z,-0.86
2023-02-26T02:15:51.208Z,-0.80
2023-02-26T02:19:03.214Z,-0.77
2023-02-26T02:22:33.970Z,-0.80
2023-02-26T02:25:57.403Z,-0.77
2023-02-26T02:29:21.963Z,-0.87
2023-02-26T02:32:30.983Z,-0.91
2023-02-26T02:35:38.925Z,-0.92
2023-02-26T02:38:47.596Z,-1.05
2023-02-26T02:41:53.404Z,-1.13
2023-02-26T02:45:02.889Z,-1.13
2023-02-26T02:48:12.452Z,-1.18
2023-02-26T02:51:19.806Z,-1.29
2023-02-26T02:54:30.034Z,-1.22
2023-02-26T02:57:37.271Z,-1.11
2023-02-26T03:00:43.548Z,-1.15
2023-02-26T03:03:52.053Z,-1.17
2023-02-26T03:06:53.732Z,-1.24
2023-02-26T03:09:55.515Z,-1.29
2023-02-26T03:12:57.255Z,-1.24
2023-02-26T03:16:13.205Z,-1.25
2023-02-26T03:19:23.872Z,-1.24
2023-02-26T03:22:34.922Z,-1.11
2023-02-26T03:25:47.812Z,-1.06
2023-02-26T03:28:54.426Z,-1.23
2023-02-26T03:31:59.244Z,-1.19
2023-02-26T03:35:09.274Z,-1.23
2023-02-26T03:38:17.971Z,-1.20
2023-02-26T03:41:24.883Z,-1.31
2023-02-26T03:44:31.082Z,-1.27
2023-02-26T03:47:34.919Z,-1.27
2023-02-26T03:50:43.012Z,-1.36
2023-02-26T03:54:21.983Z,-1.41
2023-02-26T03:57:33.448Z,-1.57
2023-02-26T04:01:01.262Z,-1.68
2023-02-26T04:04:07.903Z,-1.64
2023-02-26T04:07:15.920Z,-1.69
2023-02-26T04:10:24.093Z,-1.50
2023-02-26T04:13:26.096Z,-1.51
2023-02-26T04:16:28.499Z,-1.48
2023-02-26T04:19:30.455Z,-1.49
2023-02-26T04:22:34.107Z,-1.27
2023-02-26T04:25:36.432Z,-1.25
2023-02-26T04:28:39.270Z,-1.40
2023-02-26T04:31:41.963Z,-1.34
2023-02-26T04:34:44.158Z,-1.43
2023-02-26T04:37:47.586Z,-1.34
2023-02-26T04:40:49.858Z,-1.26
2023-02-26T04:43:51.785Z,-1.37
2023-02-26T04:47:00.781Z,-1.36
2023-02-26T04:50:03.067Z,-1.38
2023-02-26T04:53:07.197Z,-1.38
2023-02-26T04:56:14.006Z,-1.45
2023-02-26T04:59:15.805Z,-1.41
2023-02-26T05:02:17.598Z,-1.45
2023-02-26T05:05:23.486Z,-1.48
2023-02-26T05:08:26.549Z,-1.60
2023-02-26T05:11:29.456Z,-1.56
2023-02-26T05:14:32.271Z,-1.57
2023-02-26T05:17:35.250Z,-1.64
2023-02-26T05:20:37.010Z,-1.74
2023-02-26T05:23:42.016Z,-1.68
2023-02-26T05:26:43.682Z,-1.75
2023-02-26T05:29:45.693Z,-1.71
2023-02-26T05:32:49.526Z,-1.65
2023-02-26T05:35:51.407Z,-1.61
2023-02-26T05:38:54.420Z,-1.68
2023-02-26T05:41:56.976Z,-1.71
2023-02-26T05:44:58.685Z,-1.73
2023-02-26T05:48:01.126Z,-1.81
2023-02-26T05:51:03.295Z,-1.73
2023-02-26T05:54:06.408Z,-1.77
2023-02-26T05:57:08.172Z,-1.91
2023-02-26T06:00:11.964Z,-1.84
2023-02-26T06:03:16.321Z,-1.85
2023-02-26T06:06:18.523Z,-1.96
2023-02-26T06:09:21.801Z,-1.92
2023-02-26T06:12:23.599Z,-1.89
2023-02-26T06:15:25.389Z,-1.89
2023-02-26T06:18:27.346Z,-1.84
2023-02-26T06:21:29.828Z,-1.84
2023-02-26T06:24:32.853Z,-1.85
2023-02-26T06:27:34.685Z,-1.84
2023-02-26T06:30:37.623Z,-1.90
2023-02-26T06:33:39.577Z,-1.90
2023-02-26T06:36:41.491Z,-1.82
2023-02-26T06:39:44.619Z,-1.83
2023-02-26T06:42:46.407Z,-1.94
2023-02-26T06:45:48.274Z,-1.92
2023-02-26T06:48:52.113Z,-1.89
2023-02-26T06:51:53.928Z,-1.91
2023-02-26T06:54:57.173Z,-1.95
2023-02-26T06:57:59.179Z,-1.89
2023-02-26T07:01:06.513Z,-1.95
2023-02-26T07:04:08.471Z,-1.87
2023-02-26T07:07:11.216Z,-1.84
2023-02-26T07:10:14.284Z,-1.81
2023-02-26T07:13:16.498Z,-1.84
2023-02-26T07:16:18.556Z,-1.78
2023-02-26T07:19:20.856Z,-1.77
2023-02-26T07:22:22.799Z,-1.72
2023-02-26T07:25:25.945Z,-1.68
2023-02-26T07:28:28.195Z,-1.68
2023-02-26T07:31:29.970Z,-1.74
2023-02-26T07:34:32.255Z,-1.70
2023-02-26T07:37:33.986Z,-1.65
2023-02-26T07:40:37.902Z,-1.49
2023-02-26T07:43:39.777Z,-1.43
2023-02-26T07:46:41.610Z,-1.31
2023-02-26T07:49:43.367Z,-1.22
2023-02-26T07:52:46.234Z,-1.24
2023-02-26T07:55:49.714Z,-1.07
2023-02-26T07:58:51.718Z,-1.04
2023-02-26T08:01:53.841Z,-0.91
2023-02-26T08:04:55.638Z,-1.01
2023-02-26T08:07:57.564Z,-0.94
2023-02-26T08:11:01.289Z,-0.85
2023-02-26T08:14:02.981Z,-0.71
2023-02-26T08:17:04.734Z,-0.41
2023-02-26T08:20:08.079Z,-0.60
2023-02-26T08:23:10.155Z,-0.51
2023-02-26T08:26:14.736Z,-0.57
2023-02-26T08:29:16.706Z,-0.63
2023-02-26T08:32:20.100Z,-0.62
2023-02-26T08:35:22.169Z,-0.62
2023-02-26T08:38:24.060Z,-0.46
2023-02-26T08:41:29.898Z,-0.36
2023-02-26T08:44:32.006Z,-0.43
2023-02-26T08:47:42.358Z,-0.31
2023-02-26T08:50:51.084Z,-0.35
2023-02-26T08:53:53.747Z,-0.26
2023-02-26T08:56:57.808Z,-0.11
2023-02-26T08:59:59.532Z,0.07
2023-02-26T09:03:01.656Z,0.08
2023-02-26T09:06:04.889Z,0.21
2023-02-26T09:09:06.908Z,0.10
2023-02-26T09:12:10.157Z,0.25
2023-02-26T09:15:12.638Z,0.27
2023-02-26T09:18:18.365Z,0.23
2023-02-26T09:21:20.197Z,0.32
2023-02-26T09:24:22.112Z,0.36
2023-02-26T09:27:25.313Z,0.37
2023-02-26T09:30:27.041Z,0.48
2023-02-26T09:33:28.825Z,0.74
2023-02-26T09:36:31.418Z,0.80
2023-02-26T09:39:34.347Z,0.83
2023-02-26T09:42:53.149Z,1.15
2023-02-26T09:45:58.438Z,1.26
2023-02-26T09:49:14.012Z,1.09
2023-02-26T09:52:23.385Z,1.08
2023-02-26T09:55:29.926Z,1.07
2023-02-26T09:58:37.293Z,1.11
2023-02-26T10:01:46.245Z,1.03
2023-02-26T10:04:59.717Z,1.30
2023-02-26T10:08:07.365Z,1.31
2023-02-26T10:11:17.588Z,1.38
2023-02-26T10:14:32.022Z,1.61
2023-02-26T10:17:39.471Z,1.35
2023-02-26T10:20:47.953Z,2.00
2023-02-26T10:23:55.876Z,1.89
2023-02-26T10:27:05.247Z,1.94
2023-02-26T10:30:17.563Z,2.23
2023-02-26T10:33:26.505Z,2.32
2023-02-26T10:36:35.072Z,1.79
2023-02-26T10:39:43.898Z,1.81
2023-02-26T10:42:52.893Z,1.90
2023-02-26T10:46:10.031Z,2.08
2023-02-26T10:49:32.899Z,1.45
2023-02-26T10:52:36.561Z,1.50
2023-02-26T10:55:41.738Z,1.51
2023-02-26T10:58:43.684Z,1.43
2023-02-26T11:01:48.222Z,1.75
2023-02-26T11:04:56.516Z,1.73
2023-02-26T11:08:14.727Z,1.67
2023-02-26T11:11:40.396Z,1.90
2023-02-26T11:14:43.140Z,2.33
2023-02-26T11:17:49.024Z,2.29
2023-02-26T11:20:54.400Z,2.33
2023-02-26T11:23:58.421Z,2.66
2023-02-26T11:27:04.223Z,3.00
2023-02-26T11:30:15.220Z,2.53
2023-02-26T11:33:22.300Z,2.71
2023-02-26T11:36:28.601Z,2.76
2023-02-26T11:39:34.520Z,2.82
2023-02-26T11:42:41.047Z,2.98
2023-02-26T11:45:45.767Z,3.26
2023-02-26T11:48:50.226Z,2.97
2023-02-26T11:52:05.918Z,3.32
2023-02-26T11:55:18.890Z,3.14
2023-02-26T11:58:22.868Z,3.04
2023-02-26T12:01:28.479Z,2.88
2023-02-26T12:04:31.880Z,2.62
2023-02-26T12:07:33.643Z,2.66
2023-02-26T12:10:43.403Z,2.69
2023-02-26T12:13:58.168Z,2.85
2023-02-26T12:17:21.689Z,2.73
2023-02-26T12:20:30.806Z,2.83
2023-02-26T12:24:10.132Z,2.90
2023-02-26T12:27:23.087Z,3.56
2023-02-26T12:30:45.617Z,3.20
2023-02-26T12:33:57.284Z,3.11
2023-02-26T12:37:17.696Z,3.28
2023-02-26T12:40:42.071Z,3.44
2023-02-26T12:43:47.848Z,3.29
2023-02-26T12:47:00.369Z,3.33
2023-02-26T12:50:24.912Z,3.34
2023-02-26T12:53:51.701Z,3.31
2023-02-26T12:57:29.664Z,3.48
2023-02-26T13:00:58.897Z,3.07
2023-02-26T13:04:16.275Z,3.42
2023-02-26T13:07:40.381Z,3.31
2023-02-26T13:10:51.564Z,3.18
2023-02-26T13:14:05.105Z,3.11
2023-02-26T13:17:17.170Z,3.52
2023-02-26T13:20:23.978Z,4.03
2023-02-26T13:23:31.403Z,4.11
2023-02-26T13:26:36.515Z,3.82
2023-02-26T13:29:45.438Z,3.64
2023-02-26T13:32:50.420Z,3.51
2023-02-26T13:35:53.775Z,3.39
2023-02-26T13:39:13.533Z,3.19
2023-02-26T13:42:27.895Z,2.91
2023-02-26T13:45:45.639Z,3.08
2023-02-26T13:48:55.789Z,3.06
2023-02-26T13:51:57.731Z,2.96
2023-02-26T13:54:59.763Z,3.12
2023-02-26T13:58:16.820Z,3.25
2023-02-26T14:01:20.666Z,3.07
2023-02-26T14:04:25.967Z,3.45
2023-02-26T14:07:49.409Z,3.31
2023-02-26T14:10:57.796Z,3.35
2023-02-26T14:14:12.145Z,3.21
2023-02-26T14:17:30.659Z,2.95
2023-02-26T14:20:35.686Z,3.18
2023-02-26T14:23:38.285Z,3.18
2023-02-26T14:26:45.910Z,3.13
2023-02-26T14:30:00.884Z,3.10
2023-02-26T14:33:16.996Z,2.91
2023-02-26T14:36:24.880Z,3.00
2023-02-26T14:39:30.257Z,3.20
2023-02-26T14:42:36.100Z,3.12
2023-02-26T14:45:42.351Z,3.00
2023-02-26T14:48:47.821Z,2.96
2023-02-26T14:52:10.337Z,2.94
2023-02-26T14:55:47.538Z,2.86
2023-02-26T14:59:07.747Z,2.91
2023-02-26T15:02:24.609Z,3.06
2023-02-26T15:05:42.661Z,3.57
2023-02-26T15:08:58.422Z,3.08
2023-02-26T15:12:15.807Z,3.36
2023-02-26T15:15:36.687Z,3.63
2023-02-26T15:18:55.063Z,3.34
2023-02-26T15:22:16.335Z,3.37
2023-02-26T15:25:34.308Z,3.49
2023-02-26T15:28:40.005Z,3.59
2023-02-26T15:31:43.981Z,3.25
2023-02-26T15:34:48.313Z,3.01
2023-02-26T15:37:53.197Z,2.84
2023-02-26T15:41:00.893Z,3.32
2023-02-26T15:44:06.942Z,3.60
2023-02-26T15:47:09.914Z,3.34
2023-02-26T15:50:17.276Z,3.23
2023-02-26T15:53:24.508Z,3.14
2023-02-26T15:56:29.808Z,3.06
2023-02-26T15:59:32.873Z,2.84
2023-02-26T16:02:34.595Z,2.81
2023-02-26T16:05:38.720Z,2.76
2023-02-26T16:08:41.233Z,2.69
2023-02-26T16:11:44.580Z,2.71
2023-02-26T16:14:49.763Z,2.69
2023-02-26T16:17:55.075Z,2.64
2023-02-26T16:21:01.168Z,2.56
2023-02-26T16:24:05.923Z,2.53
2023-02-26T16:27:13.314Z,2.47
2023-02-26T16:30:22.669Z,2.44
2023-02-26T16:33:26.416Z,2.38
2023-02-26T16:36:32.949Z,2.33
2023-02-26T16:39:34.724Z,2.29
2023-02-26T16:42:45.474Z,2.30
2023-02-26T16:45:50.782Z,2.22
2023-02-26T16:48:54.313Z,2.17
2023-02-26T16:51:58.738Z,2.19
2023-02-26T16:55:04.893Z,2.21
2023-02-26T16:58:10.671Z,2.15
2023-02-26T17:01:15.141Z,2.17
2023-02-26T17:04:19.510Z,2.15
2023-02-26T17:07:27.126Z,2.13
2023-02-26T17:10:34.375Z,2.06
2023-02-26T17:13:38.330Z,1.96
2023-02-26T17:16:40.116Z,1.96
2023-02-26T17:19:41.929Z,1.98
2023-02-26T17:22:45.194Z,1.96
2023-02-26T17:25:52.845Z,2.01
2023-02-26T17:28:55.784Z,1.97
2023-02-26T17:31:57.859Z,1.90
2023-02-26T17:34:59.741Z,1.89
2023-02-26T17:38:03.944Z,1.90
2023-02-26T17:41:05.792Z,1.79
2023-02-26T17:44:07.559Z,1.81
2023-02-26T17:47:15.268Z,1.81
2023-02-26T17:50:38.224Z,1.74
2023-02-26T17:53:41.576Z,1.74
2023-02-26T17:56:44.986Z,1.68
2023-02-26T17:59:47.584Z,1.64
2023-02-26T18:02:53.154Z,1.64
2023-02-26T18:05:56.449Z,1.56
2023-02-26T18:09:00.976Z,1.54
2023-02-26T18:12:03.698Z,1.59
2023-02-26T18:15:06.270Z,1.44
2023-02-26T18:18:09.468Z,1.58
2023-02-26T18:21:11.605Z,1.61
2023-02-26T18:24:14.690Z,1.63
2023-02-26T18:27:19.277Z,1.60
2023-02-26T18:30:24.224Z,1.60
2023-02-26T18:33:26.161Z,1.62
2023-02-26T18:36:34.459Z,1.64
2023-02-26T18:39:38.130Z,1.51
2023-02-26T18:42:39.920Z,1.39
2023-02-26T18:45:43.235Z,1.34
2023-02-26T18:48:44.947Z,1.21
2023-02-26T18:51:46.990Z,1.16
2023-02-26T18:54:50.144Z,0.81
2023-02-26T18:57:52.153Z,0.92
2023-02-26T19:00:54.009Z,0.73
2023-02-26T19:03:56.266Z,0.71
2023-02-26T19:06:58.251Z,0.84
2023-02-26T19:10:02.424Z,0.69
2023-02-26T19:13:04.548Z,0.81
2023-02-26T19:16:06.506Z,0.64
2023-02-26T19:19:11.769Z,0.43
2023-02-26T19:22:14.060Z,0.55
2023-02-26T19:25:24.285Z,0.47
2023-02-26T19:28:26.524Z,0.47
2023-02-26T19:31:28.851Z,0.42
2023-02-26T19:34:31.420Z,0.34
2023-02-26T19:37:33.157Z,0.50
2023-02-26T19:40:36.155Z,0.32
2023-02-26T19:43:37.960Z,0.24
2023-02-26T19:46:41.861Z,0.19
2023-02-26T19:49:43.777Z,0.13
2023-02-26T19:52:45.804Z,-0.34
2023-02-26T19:55:50.514Z,-0.40
2023-02-26T19:58:52.307Z,-0.58
2023-02-26T20:01:54.139Z,-0.96
2023-02-26T20:04:56.150Z,-0.78
2023-02-26T20:07:57.964Z,-0.70
2023-02-26T20:11:04.345Z,-0.53
2023-02-26T20:14:06.658Z,-0.56
2023-02-26T20:17:08.450Z,-0.73
2023-02-26T20:20:11.486Z,-0.75
2023-02-26T20:23:13.292Z,-0.68
2023-02-26T20:26:16.567Z,-0.73
2023-02-26T20:29:18.591Z,-1.02
2023-02-26T20:32:20.484Z,-0.79
2023-02-26T20:35:22.538Z,-0.69
2023-02-26T20:38:24.213Z,-0.41
2023-02-26T20:41:27.823Z,-0.55
2023-02-26T20:44:30.031Z,-0.54
2023-02-26T20:47:31.843Z,-0.57
2023-02-26T20:50:35.063Z,-0.51
2023-02-26T20:53:36.974Z,-0.56
2023-02-26T20:56:40.320Z,-0.43
2023-02-26T20:59:42.075Z,-0.43
2023-02-26T21:02:45.179Z,-0.53
2023-02-26T21:05:47.674Z,-0.61
2023-02-26T21:08:49.622Z,-0.59
2023-02-26T21:11:53.972Z,-0.57
2023-02-26T21:14:55.821Z,-0.69
2023-02-26T21:17:58.205Z,-0.88
2023-02-26T21:21:02.032Z,-0.88
2023-02-26T21:24:04.447Z,-0.99
2023-02-26T21:27:07.732Z,-1.08
2023-02-26T21:30:11.903Z,-0.68
2023-02-26T21:33:13.621Z,-0.60
2023-02-26T21:36:15.814Z,-0.42
2023-02-26T21:39:17.720Z,-0.38
2023-02-26T21:42:20.768Z,-0.42
2023-02-26T21:45:25.405Z,-0.40
2023-02-26T21:48:27.144Z,-0.93
2023-02-26T21:51:29.030Z,-0.88
2023-02-26T21:54:30.990Z,-0.91
2023-02-26T21:57:34.432Z,-0.83
2023-02-26T22:00:36.110Z,-1.09
2023-02-26T22:03:38.712Z,-0.69
2023-02-26T22:06:41.309Z,-0.62
2023-02-26T22:09:45.602Z,-0.60
2023-02-26T22:12:50.122Z,-0.66
2023-02-26T22:15:51.966Z,-0.93
2023-02-26T22:18:54.026Z,-0.77
2023-02-26T22:21:55.933Z,-0.77
2023-02-26T22:24:57.778Z,-1.03
2023-02-26T22:28:00.867Z,-1.23
2023-02-26T22:31:02.882Z,-1.07
2023-02-26T22:34:04.634Z,-1.14
2023-02-26T22:37:06.496Z,-1.03
2023-02-26T22:40:12.856Z,-1.17
2023-02-26T22:43:16.140Z,-1.19
2023-02-26T22:46:17.987Z,-1.61
2023-02-26T22:49:20.679Z,-1.63
2023-02-26T22:52:22.494Z,-1.81
2023-02-26T22:55:24.398Z,-1.47
2023-02-26T22:58:28.720Z,-1.63
2023-02-26T23:01:30.486Z,-1.83
2023-02-26T23:04:32.242Z,-1.57
2023-02-26T23:07:34.152Z,-1.21
2023-02-26T23:10:35.896Z,-1.12
2023-02-26T23:13:39.202Z,-1.49
2023-02-26T23:16:41.037Z,-1.40
2023-02-26T23:19:42.780Z,-1.66
2023-02-26T23:22:44.678Z,-1.82
2023-02-26T23:25:47.062Z,-1.75
2023-02-26T23:28:50.471Z,-2.01
2023-02-26T23:31:52.392Z,-2.14
2023-02-26T23:34:54.255Z,-1.99
2023-02-26T23:37:56.540Z,-2.15
2023-02-26T23:40:58.377Z,-1.70
2023-02-26T23:44:02.047Z,-1.85
2023-02-26T23:47:04.025Z,-1.75
2023-02-26T23:50:07.983Z,-1.97
2023-02-26T23:53:09.791Z,-2.09
2023-02-26T23:56:11.703Z,-2.18
2023-02-26T23:59:14.835Z,-2.27
